createdAt,value
2023-03-03T00:00:39.870Z,19.95
2023-03-03T00:05:34.975Z,24.60
2023-03-03T00:10:26.874Z,21.42
2023-03-03T00:15:20.926Z,19.05
2023-03-03T00:20:33.294Z,23.48
2023-03-03T00:25:30.872Z,19.17
2023-03-03T00:30:27.440Z,19.08
2023-03-03T00:35:35.844Z,19.02
2023-03-03T00:40:38.203Z,17.65
2023-03-03T00:45:51.422Z,16.70
2023-03-03T00:50:44.344Z,21.00
2023-03-03T00:55:36.286Z,19.83
2023-03-03T01:00:28.123Z,16.42
2023-03-03T01:05:21.278Z,15.60
2023-03-03T01:10:14.311Z,18.90
2023-03-03T01:15:07.868Z,14.93
2023-03-03T01:19:59.856Z,16.98
2023-03-03T01:24:51.835Z,19.83
2023-03-03T01:29:43.626Z,15.18
2023-03-03T01:34:35.482Z,16.77
2023-03-03T01:39:27.536Z,15.77
2023-03-03T01:44:19.492Z,19.15
2023-03-03T01:49:16.145Z,15.85
2023-03-03T01:54:13.422Z,15.00
2023-03-03T01:59:24.414Z,14.63
2023-03-03T02:04:17.987Z,16.25
2023-03-03T02:09:12.758Z,13.88
2023-03-03T02:14:05.020Z,14.52
2023-03-03T02:18:57.355Z,13.47
2023-03-03T02:23:58.408Z,15.30
2023-03-03T02:28:51.965Z,13.43
2023-03-03T02:33:45.833Z,12.90
2023-03-03T02:38:51.916Z,12.63
2023-03-03T02:43:52.876Z,13.35
2023-03-03T02:48:45.260Z,13.43
2023-03-03T02:53:37.319Z,12.55
2023-03-03T02:58:29.162Z,15.18
2023-03-03T03:03:21.038Z,12.30
2023-03-03T03:08:13.835Z,11.75
2023-03-03T03:13:05.669Z,12.18
2023-03-03T03:17:58.037Z,14.03
2023-03-03T03:22:50.366Z,12.90
2023-03-03T03:27:42.840Z,13.30
2023-03-03T03:32:35.106Z,11.90
2023-03-03T03:37:27.012Z,12.07
2023-03-03T03:42:18.947Z,13.68
2023-03-03T03:47:11.051Z,11.65
2023-03-03T03:52:03.600Z,11.33
2023-03-03T03:56:58.375Z,11.95
2023-03-03T04:01:51.159Z,12.57
2023-03-03T04:11:37.448Z,12.80
2023-03-03T04:16:32.766Z,11.85
2023-03-03T04:21:25.316Z,13.80
2023-03-03T04:26:20.294Z,10.95
2023-03-03T04:31:13.766Z,10.95
2023-03-03T04:36:06.552Z,11.80
2023-03-03T04:40:58.913Z,10.57
2023-03-03T04:45:53.894Z,10.02
2023-03-03T04:50:46.794Z,10.63
2023-03-03T04:55:38.846Z,9.40
2023-03-03T05:00:31.995Z,11.20
2023-03-03T05:05:25.388Z,10.68
2023-03-03T05:10:17.250Z,10.27
2023-03-03T05:15:09.341Z,11.43
2023-03-03T05:20:01.374Z,9.02
2023-03-03T05:24:53.943Z,10.65
2023-03-03T05:29:46.102Z,9.98
2023-03-03T05:34:38.309Z,10.10
2023-03-03T05:39:30.136Z,12.88
2023-03-03T05:44:21.905Z,9.13
2023-03-03T05:49:14.008Z,9.77
2023-03-03T05:54:06.059Z,10.07
2023-03-03T05:58:57.890Z,10.70
2023-03-03T06:03:49.715Z,11.25
2023-03-03T06:08:41.579Z,9.52
2023-03-03T06:13:33.502Z,11.73
2023-03-03T06:18:25.326Z,8.90
2023-03-03T06:23:17.176Z,10.40
2023-03-03T06:28:09.074Z,10.55
2023-03-03T06:33:01.053Z,8.70
2023-03-03T06:37:52.937Z,10.60
2023-03-03T06:42:45.020Z,10.25
2023-03-03T06:47:37.010Z,11.00
2023-03-03T06:52:28.866Z,9.13
2023-03-03T06:57:26.340Z,11.15
2023-03-03T07:02:18.545Z,9.43
2023-03-03T07:07:20.681Z,10.85
2023-03-03T07:12:30.391Z,12.00
2023-03-03T07:17:24.674Z,8.38
2023-03-03T07:22:21.521Z,9.63
2023-03-03T07:27:34.423Z,8.68
2023-03-03T07:32:40.401Z,8.90
2023-03-03T07:37:39.609Z,9.52
2023-03-03T07:42:40.315Z,8.60
2023-03-03T07:47:49.782Z,12.30
2023-03-03T07:52:43.738Z,10.20
2023-03-03T07:57:39.878Z,8.63
2023-03-03T08:02:47.481Z,9.25
2023-03-03T08:07:39.346Z,7.57
2023-03-03T08:12:38.173Z,9.65
2023-03-03T08:17:37.025Z,10.48
2023-03-03T08:22:35.779Z,7.65
2023-03-03T08:27:27.852Z,8.15
2023-03-03T08:32:19.897Z,8.55
2023-03-03T08:37:11.764Z,8.23
2023-03-03T08:42:03.793Z,9.32
2023-03-03T08:46:55.597Z,9.23
2023-03-03T08:51:47.500Z,8.93
2023-03-03T08:56:39.386Z,7.03
2023-03-03T09:01:32.515Z,8.93
2023-03-03T09:11:24.320Z,7.28
2023-03-03T09:16:16.537Z,8.50
2023-03-03T09:21:26.314Z,7.20
2023-03-03T09:26:32.216Z,7.90
2023-03-03T09:31:43.533Z,7.70
2023-03-03T09:36:38.646Z,7.75
2023-03-03T09:42:02.506Z,8.23
2023-03-03T09:47:00.242Z,7.18
2023-03-03T09:52:04.206Z,8.10
2023-03-03T09:57:23.225Z,6.90
2023-03-03T10:02:36.080Z,8.90
2023-03-03T10:07:43.202Z,8.00
2023-03-03T10:13:03.562Z,9.98
2023-03-03T10:18:17.168Z,7.75
2023-03-03T10:23:29.196Z,6.60
2023-03-03T10:28:43.546Z,9.13
2023-03-03T10:33:55.659Z,7.90
2023-03-03T10:38:59.544Z,7.28
2023-03-03T10:44:16.234Z,6.63
2023-03-03T10:49:45.389Z,7.43
2023-03-03T10:54:55.886Z,7.22
2023-03-03T11:00:20.056Z,7.07
2023-03-03T11:05:39.871Z,6.93
2023-03-03T11:10:58.750Z,8.85
2023-03-03T11:15:53.572Z,8.32
2023-03-03T11:21:05.697Z,8.15
2023-03-03T11:26:08.211Z,7.88
2023-03-03T11:31:22.505Z,6.33
2023-03-03T11:36:35.050Z,8.10
2023-03-03T11:41:38.087Z,7.47
2023-03-03T11:46:37.331Z,7.28
2023-03-03T11:51:41.693Z,6.35
2023-03-03T11:56:45.832Z,7.38
2023-03-03T12:01:44.693Z,7.63
2023-03-03T12:07:16.834Z,5.97
2023-03-03T12:12:19.359Z,6.95
2023-03-03T12:17:20.381Z,7.25
2023-03-03T12:22:26.817Z,6.93
2023-03-03T12:27:43.623Z,7.05
2023-03-03T12:32:56.871Z,6.97
2023-03-03T12:38:11.765Z,8.05
2023-03-03T12:44:00.413Z,6.80
2023-03-03T12:48:52.298Z,6.30
2023-03-03T12:54:07.261Z,6.85
2023-03-03T12:59:15.555Z,6.22
2023-03-03T13:04:27.344Z,7.22
2023-03-03T13:09:29.783Z,5.40
2023-03-03T13:14:44.377Z,6.57
2023-03-03T13:19:44.661Z,7.03
2023-03-03T13:24:51.460Z,7.13
2023-03-03T13:30:04.229Z,6.40
2023-03-03T13:35:09.325Z,6.05
2023-03-03T13:40:01.392Z,7.80
2023-03-03T13:44:54.852Z,7.47
2023-03-03T13:49:58.753Z,6.00
2023-03-03T13:54:57.580Z,6.05
2023-03-03T14:00:21.207Z,6.55
2023-03-03T14:05:17.314Z,7.70
2023-03-03T14:10:18.428Z,5.70
2023-03-03T14:15:23.906Z,6.00
2023-03-03T14:20:35.091Z,6.22
2023-03-03T14:25:27.280Z,5.53
2023-03-03T14:30:22.243Z,6.93
2023-03-03T14:35:19.730Z,5.70
2023-03-03T14:40:22.023Z,5.15
2023-03-03T14:45:29.436Z,5.75
2023-03-03T14:50:42.370Z,5.03
2023-03-03T14:55:37.113Z,6.15
2023-03-03T15:00:35.232Z,6.05
2023-03-03T15:05:32.346Z,5.47
2023-03-03T15:10:39.277Z,6.82
2023-03-03T15:15:31.156Z,5.97
2023-03-03T15:20:44.911Z,5.45
2023-03-03T15:25:49.755Z,6.13
2023-03-03T15:31:08.671Z,5.43
2023-03-03T15:36:19.511Z,6.82
2023-03-03T15:41:17.512Z,6.28
2023-03-03T15:46:26.166Z,5.57
2023-03-03T15:51:24.216Z,5.32
2023-03-03T15:56:34.956Z,5.55
2023-03-03T16:01:33.612Z,5.72
2023-03-03T16:06:34.310Z,6.60
2023-03-03T16:11:55.469Z,5.65
2023-03-03T16:17:05.210Z,6.22
2023-03-03T16:22:21.915Z,5.45
2023-03-03T16:27:25.109Z,6.10
2023-03-03T16:33:09.557Z,5.82
2023-03-03T16:38:14.018Z,5.25
2023-03-03T16:43:14.900Z,4.70
2023-03-03T16:48:18.485Z,6.47
2023-03-03T16:53:31.022Z,5.97
2023-03-03T16:58:34.958Z,5.27
2023-03-03T17:03:45.744Z,5.68
2023-03-03T17:09:04.234Z,5.80
2023-03-03T17:14:22.291Z,6.47
2023-03-03T17:19:51.561Z,5.53
2023-03-03T17:25:22.657Z,5.13
2023-03-03T17:30:40.707Z,5.60
2023-03-03T17:35:57.558Z,6.32
2023-03-03T17:41:11.236Z,5.63
2023-03-03T17:46:05.252Z,6.30
2023-03-03T17:51:10.382Z,5.95
2023-03-03T17:56:24.298Z,6.70
2023-03-03T18:01:25.385Z,5.93
2023-03-03T18:06:20.115Z,7.18
2023-03-03T18:11:42.612Z,6.32
2023-03-03T18:17:02.299Z,6.75
2023-03-03T18:21:55.440Z,6.53
2023-03-03T18:32:17.877Z,6.22
2023-03-03T18:37:28.493Z,7.63
2023-03-03T18:42:23.605Z,7.10
2023-03-03T18:47:17.626Z,7.93
2023-03-03T18:52:29.225Z,6.50
2023-03-03T18:57:21.254Z,6.85
2023-03-03T19:02:13.167Z,5.53
2023-03-03T19:07:10.999Z,6.22
2023-03-03T19:12:03.002Z,6.95
2023-03-03T19:16:56.752Z,7.07
2023-03-03T19:22:12.598Z,7.00
2023-03-03T19:27:26.013Z,7.72
2023-03-03T19:37:25.178Z,7.93
2023-03-03T19:42:23.389Z,6.85
2023-03-03T19:47:36.657Z,5.60
2023-03-03T19:52:41.896Z,6.32
2023-03-03T19:57:37.011Z,6.72
2023-03-03T20:02:47.784Z,6.63
2023-03-03T20:08:02.943Z,5.97
2023-03-03T20:13:17.258Z,6.45
2023-03-03T20:18:46.607Z,6.18
2023-03-03T20:24:00.243Z,6.72
2023-03-03T20:29:03.612Z,6.22
2023-03-03T20:34:20.104Z,7.32
2023-03-03T20:39:45.840Z,7.63
2023-03-03T20:45:16.644Z,6.57
2023-03-03T20:50:24.693Z,6.35
2023-03-03T20:55:33.966Z,5.97
2023-03-03T21:01:04.822Z,5.47
2023-03-03T21:06:00.743Z,6.32
2023-03-03T21:10:57.737Z,6.07
2023-03-03T21:16:04.134Z,5.57
2023-03-03T21:20:56.314Z,6.97
2023-03-03T21:25:54.189Z,6.32
2023-03-03T21:31:02.749Z,6.85
2023-03-03T21:35:58.749Z,5.93
2023-03-03T21:41:00.211Z,5.97
2023-03-03T21:45:52.179Z,5.88
2023-03-03T21:50:46.605Z,5.70
2023-03-03T21:55:38.423Z,6.15
2023-03-03T22:00:30.232Z,5.68
2023-03-03T22:05:22.330Z,6.13
2023-03-03T22:10:14.280Z,6.45
2023-03-03T22:15:06.711Z,6.35
2023-03-03T22:19:59.035Z,7.30
2023-03-03T22:24:50.872Z,5.33
2023-03-03T22:29:42.810Z,6.13
2023-03-03T22:34:34.641Z,5.80
2023-03-03T22:39:26.488Z,5.97
2023-03-03T22:44:18.336Z,5.13
2023-03-03T22:49:10.191Z,6.20
2023-03-03T22:54:02.225Z,5.53
2023-03-03T22:58:54.193Z,6.18
2023-03-03T23:03:46.093Z,5.28
2023-03-03T23:08:37.965Z,6.78
2023-03-03T23:13:29.748Z,6.45
2023-03-03T23:18:21.616Z,5.43
2023-03-03T23:23:13.557Z,5.15
2023-03-03T23:28:05.868Z,5.90
2023-03-03T23:32:57.710Z,6.40
2023-03-03T23:37:49.663Z,5.40
2023-03-03T23:42:41.572Z,5.60
2023-03-03T23:47:33.677Z,5.22
2023-03-03T23:52:25.531Z,5.30
2023-03-03T23:57:17.372Z,5.40
